sensor_id;sensor_type;location;lat;lon;timestamp;P1;durP1;ratioP1;P2;durP2;ratioP2
42802;SDS011;28447;48.682;9.022;2023-05-07T04:02:25;8.83;;;6.60;;
42802;SDS011;28447;48.682;9.022;2023-05-07T04:04:51;9.07;;;7.30;;
42802;SDS011;28447;48.682;9.022;2023-05-07T04:07:17;12.33;;;9.77;;
42802;SDS011;28447;48.682;9.022;2023-05-07T04:09:43;13.33;;;9.10;;
42802;SDS011;28447;48.682;9.022;2023-05-07T04:12:09;9.90;;;7.57;;
42802;SDS011;28447;48.682;9.022;2023-05-07T04:14:35;14.13;;;8.30;;
42802;SDS011;28447;48.682;9.022;2023-05-07T04:17:01;7.93;;;7.10;;
42802;SDS011;28447;48.682;9.022;2023-05-07T04:19:27;12.40;;;7.30;;
42802;SDS011;28447;48.682;9.022;2023-05-07T04:21:53;10.93;;;8.23;;
42802;SDS011;28447;48.682;9.022;2023-05-07T04:24:20;11.17;;;7.93;;
42802;SDS011;28447;48.682;9.022;2023-05-07T04:26:46;8.47;;;7.20;;
42802;SDS011;28447;48.682;9.022;2023-05-07T04:29:12;10.67;;;6.83;;
42802;SDS011;28447;48.682;9.022;2023-05-07T04:31:38;8.77;;;7.20;;
42802;SDS011;28447;48.682;9.022;2023-05-07T04:34:04;9.17;;;6.27;;
42802;SDS011;28447;48.682;9.022;2023-05-07T04:36:30;8.17;;;6.50;;
42802;SDS011;28447;48.682;9.022;2023-05-07T04:38:58;9.70;;;6.57;;
42802;SDS011;28447;48.682;9.022;2023-05-07T04:41:23;7.07;;;6.10;;
42802;SDS011;28447;48.682;9.022;2023-05-07T04:43:49;11.57;;;6.50;;
42802;SDS011;28447;48.682;9.022;2023-05-07T04:46:16;14.07;;;6.23;;
42802;SDS011;28447;48.682;9.022;2023-05-07T04:48:42;8.40;;;6.00;;
42802;SDS011;28447;48.682;9.022;2023-05-07T04:51:07;7.23;;;6.30;;
42802;SDS011;28447;48.682;9.022;2023-05-07T04:53:33;8.83;;;6.23;;
42802;SDS011;28447;48.682;9.022;2023-05-07T04:55:58;7.10;;;5.83;;
42802;SDS011;28447;48.682;9.022;2023-05-07T04:58:24;6.90;;;6.10;;
42802;SDS011;28447;48.682;9.022;2023-05-07T05:00:50;7.73;;;6.37;;
42802;SDS011;28447;48.682;9.022;2023-05-07T05:03:16;9.70;;;5.67;;
42802;SDS011;28447;48.682;9.022;2023-05-07T05:05:41;10.40;;;6.00;;
42802;SDS011;28447;48.682;9.022;2023-05-07T05:08:07;12.10;;;7.70;;
42802;SDS011;28447;48.682;9.022;2023-05-07T05:10:33;10.77;;;8.33;;
42802;SDS011;28447;48.682;9.022;2023-05-07T05:12:58;8.50;;;7.03;;
42802;SDS011;28447;48.682;9.022;2023-05-07T05:15:24;9.90;;;7.83;;
42802;SDS011;28447;48.682;9.022;2023-05-07T05:17:50;11.43;;;9.33;;
42802;SDS011;28447;48.682;9.022;2023-05-07T05:20:15;11.87;;;8.53;;
42802;SDS011;28447;48.682;9.022;2023-05-07T05:22:41;12.83;;;8.20;;
42802;SDS011;28447;48.682;9.022;2023-05-07T05:25:07;13.07;;;8.63;;
42802;SDS011;28447;48.682;9.022;2023-05-07T05:27:33;9.53;;;8.27;;
42802;SDS011;28447;48.682;9.022;2023-05-07T05:30:00;9.40;;;8.20;;
42802;SDS011;28447;48.682;9.022;2023-05-07T05:32:25;15.73;;;9.50;;
42802;SDS011;28447;48.682;9.022;2023-05-07T05:34:51;17.20;;;10.03;;
42802;SDS011;28447;48.682;9.022;2023-05-07T05:37:17;13.13;;;8.40;;
42802;SDS011;28447;48.682;9.022;2023-05-07T05:39:42;10.67;;;7.83;;
42802;SDS011;28447;48.682;9.022;2023-05-07T05:42:09;15.30;;;8.83;;
42802;SDS011;28447;48.682;9.022;2023-05-07T05:44:34;17.73;;;8.50;;
42802;SDS011;28447;48.682;9.022;2023-05-07T05:47:00;10.80;;;9.10;;
42802;SDS011;28447;48.682;9.022;2023-05-07T05:49:25;12.10;;;7.87;;
42802;SDS011;28447;48.682;9.022;2023-05-07T05:51:51;10.93;;;8.87;;
42802;SDS011;28447;48.682;9.022;2023-05-07T05:54:17;11.10;;;9.30;;
42802;SDS011;28447;48.682;9.022;2023-05-07T05:56:42;10.07;;;8.47;;
42802;SDS011;28447;48.682;9.022;2023-05-07T05:59:08;9.30;;;7.80;;
42802;SDS011;28447;48.682;9.022;2023-05-07T06:01:34;9.93;;;7.20;;
42802;SDS011;28447;48.682;9.022;2023-05-07T06:03:59;8.60;;;7.10;;
42802;SDS011;28447;48.682;9.022;2023-05-07T06:06:25;10.60;;;6.57;;
42802;SDS011;28447;48.682;9.022;2023-05-07T06:08:51;9.97;;;6.20;;
42802;SDS011;28447;48.682;9.022;2023-05-07T06:11:16;7.53;;;6.73;;
42802;SDS011;28447;48.682;9.022;2023-05-07T06:13:42;7.17;;;6.00;;
42802;SDS011;28447;48.682;9.022;2023-05-07T06:16:08;11.70;;;6.90;;
42802;SDS011;28447;48.682;9.022;2023-05-07T06:18:33;7.93;;;6.30;;
42802;SDS011;28447;48.682;9.022;2023-05-07T06:21:01;7.40;;;5.60;;
42802;SDS011;28447;48.682;9.022;2023-05-07T06:23:26;6.70;;;6.00;;
42802;SDS011;28447;48.682;9.022;2023-05-07T06:25:52;6.73;;;5.97;;
42802;SDS011;28447;48.682;9.022;2023-05-07T06:28:18;9.60;;;5.17;;
42802;SDS011;28447;48.682;9.022;2023-05-07T06:30:43;6.73;;;5.03;;
42802;SDS011;28447;48.682;9.022;2023-05-07T06:33:10;8.03;;;6.10;;
42802;SDS011;28447;48.682;9.022;2023-05-07T06:35:35;8.13;;;5.30;;
42802;SDS011;28447;48.682;9.022;2023-05-07T06:38:01;6.10;;;4.77;;
42802;SDS011;28447;48.682;9.022;2023-05-07T06:40:27;5.73;;;5.00;;
42802;SDS011;28447;48.682;9.022;2023-05-07T06:42:53;4.93;;;4.43;;
42802;SDS011;28447;48.682;9.022;2023-05-07T06:45:19;5.90;;;4.90;;
42802;SDS011;28447;48.682;9.022;2023-05-07T06:47:46;5.93;;;5.33;;
42802;SDS011;28447;48.682;9.022;2023-05-07T06:50:12;6.00;;;4.90;;
42802;SDS011;28447;48.682;9.022;2023-05-07T06:52:38;7.30;;;5.10;;
42802;SDS011;28447;48.682;9.022;2023-05-07T06:55:04;7.07;;;5.23;;
42802;SDS011;28447;48.682;9.022;2023-05-07T06:57:30;4.97;;;4.50;;
42802;SDS011;28447;48.682;9.022;2023-05-07T06:59:56;6.77;;;5.30;;
42802;SDS011;28447;48.682;9.022;2023-05-07T07:02:22;6.50;;;5.17;;
42802;SDS011;28447;48.682;9.022;2023-05-07T07:04:48;4.83;;;4.33;;
42802;SDS011;28447;48.682;9.022;2023-05-07T07:07:14;5.23;;;4.73;;
42802;SDS011;28447;48.682;9.022;2023-05-07T07:09:40;5.10;;;4.60;;
42802;SDS011;28447;48.682;9.022;2023-05-07T07:12:07;5.97;;;5.33;;
42802;SDS011;28447;48.682;9.022;2023-05-07T07:14:33;5.37;;;4.87;;
42802;SDS011;28447;48.682;9.022;2023-05-07T07:16:58;5.00;;;4.50;;
42802;SDS011;28447;48.682;9.022;2023-05-07T07:19:25;8.80;;;4.40;;
42802;SDS011;28447;48.682;9.022;2023-05-07T07:21:51;4.97;;;4.43;;
42802;SDS011;28447;48.682;9.022;2023-05-07T07:24:17;5.20;;;4.70;;
42802;SDS011;28447;48.682;9.022;2023-05-07T07:26:46;7.00;;;4.77;;
42802;SDS011;28447;48.682;9.022;2023-05-07T07:29:12;5.60;;;4.60;;
42802;SDS011;28447;48.682;9.022;2023-05-07T07:31:37;5.17;;;4.20;;
42802;SDS011;28447;48.682;9.022;2023-05-07T07:34:03;5.17;;;4.67;;
42802;SDS011;28447;48.682;9.022;2023-05-07T07:36:29;4.83;;;4.43;;
42802;SDS011;28447;48.682;9.022;2023-05-07T07:38:55;5.60;;;4.80;;
42802;SDS011;28447;48.682;9.022;2023-05-07T07:41:20;4.73;;;4.33;;
42802;SDS011;28447;48.682;9.022;2023-05-07T07:43:46;6.10;;;4.50;;
42802;SDS011;28447;48.682;9.022;2023-05-07T07:46:12;4.53;;;4.13;;
42802;SDS011;28447;48.682;9.022;2023-05-07T07:48:38;11.90;;;4.30;;
42802;SDS011;28447;48.682;9.022;2023-05-07T07:51:03;4.77;;;4.37;;
42802;SDS011;28447;48.682;9.022;2023-05-07T07:53:29;5.27;;;4.10;;
42802;SDS011;28447;48.682;9.022;2023-05-07T07:55:55;4.37;;;3.97;;
42802;SDS011;28447;48.682;9.022;2023-05-07T07:58:21;4.47;;;4.07;;
42802;SDS011;28447;48.682;9.022;2023-05-07T08:00:47;5.40;;;4.33;;
42802;SDS011;28447;48.682;9.022;2023-05-07T08:03:13;5.20;;;3.53;;
42802;SDS011;28447;48.682;9.022;2023-05-07T08:05:39;5.00;;;4.00;;
42802;SDS011;28447;48.682;9.022;2023-05-07T08:08:05;4.60;;;4.00;;
42802;SDS011;28447;48.682;9.022;2023-05-07T08:10:31;3.70;;;3.40;;
42802;SDS011;28447;48.682;9.022;2023-05-07T08:12:59;3.30;;;3.00;;
42802;SDS011;28447;48.682;9.022;2023-05-07T08:15:26;4.57;;;3.60;;
42802;SDS011;28447;48.682;9.022;2023-05-07T08:17:52;4.07;;;3.67;;
42802;SDS011;28447;48.682;9.022;2023-05-07T08:20:17;3.43;;;3.13;;
42802;SDS011;28447;48.682;9.022;2023-05-07T08:22:44;4.37;;;3.97;;
42802;SDS011;28447;48.682;9.022;2023-05-07T08:25:10;4.25;;;3.72;;
42802;SDS011;28447;48.682;9.022;2023-05-07T08:27:36;4.05;;;3.60;;
42802;SDS011;28447;48.682;9.022;2023-05-07T08:30:02;4.00;;;3.50;;
42802;SDS011;28447;48.682;9.022;2023-05-07T08:32:28;4.60;;;3.43;;
42802;SDS011;28447;48.682;9.022;2023-05-07T08:34:54;4.50;;;3.90;;
42802;SDS011;28447;48.682;9.022;2023-05-07T08:37:21;3.92;;;3.63;;
42802;SDS011;28447;48.682;9.022;2023-05-07T08:39:46;3.70;;;3.40;;
42802;SDS011;28447;48.682;9.022;2023-05-07T08:42:13;3.63;;;3.30;;
42802;SDS011;28447;48.682;9.022;2023-05-07T08:44:42;4.43;;;3.08;;
42802;SDS011;28447;48.682;9.022;2023-05-07T08:47:12;4.23;;;3.47;;
42802;SDS011;28447;48.682;9.022;2023-05-07T08:49:38;3.23;;;2.93;;
42802;SDS011;28447;48.682;9.022;2023-05-07T08:52:04;4.50;;;3.30;;
42802;SDS011;28447;48.682;9.022;2023-05-07T08:54:30;5.15;;;3.65;;
42802;SDS011;28447;48.682;9.022;2023-05-07T08:56:56;5.13;;;3.10;;
42802;SDS011;28447;48.682;9.022;2023-05-07T08:59:22;3.78;;;2.90;;
42802;SDS011;28447;48.682;9.022;2023-05-07T09:01:48;4.88;;;3.40;;
42802;SDS011;28447;48.682;9.022;2023-05-07T09:04:14;3.75;;;3.00;;
42802;SDS011;28447;48.682;9.022;2023-05-07T09:06:40;3.75;;;3.40;;
42802;SDS011;28447;48.682;9.022;2023-05-07T09:09:07;3.95;;;3.30;;
42802;SDS011;28447;48.682;9.022;2023-05-07T09:11:33;3.92;;;3.53;;
42802;SDS011;28447;48.682;9.022;2023-05-07T09:13:58;3.80;;;3.50;;
42802;SDS011;28447;48.682;9.022;2023-05-07T09:16:26;4.27;;;3.87;;
42802;SDS011;28447;48.682;9.022;2023-05-07T09:18:54;5.70;;;4.10;;
42802;SDS011;28447;48.682;9.022;2023-05-07T09:21:20;5.38;;;3.72;;
42802;SDS011;28447;48.682;9.022;2023-05-07T09:23:51;3.83;;;3.53;;
42802;SDS011;28447;48.682;9.022;2023-05-07T09:26:17;3.95;;;3.60;;
42802;SDS011;28447;48.682;9.022;2023-05-07T09:28:43;4.10;;;3.35;;
42802;SDS011;28447;48.682;9.022;2023-05-07T09:31:10;4.40;;;4.00;;
42802;SDS011;28447;48.682;9.022;2023-05-07T09:33:36;6.90;;;4.00;;
42802;SDS011;28447;48.682;9.022;2023-05-07T09:36:05;4.93;;;3.58;;
42802;SDS011;28447;48.682;9.022;2023-05-07T09:38:36;4.93;;;3.78;;
42802;SDS011;28447;48.682;9.022;2023-05-07T09:41:06;5.28;;;3.80;;
42802;SDS011;28447;48.682;9.022;2023-05-07T09:43:38;3.80;;;3.50;;
42802;SDS011;28447;48.682;9.022;2023-05-07T09:48:36;5.78;;;3.90;;
42802;SDS011;28447;48.682;9.022;2023-05-07T09:51:06;4.68;;;4.07;;
42802;SDS011;28447;48.682;9.022;2023-05-07T09:53:52;4.38;;;3.97;;
42802;SDS011;28447;48.682;9.022;2023-05-07T09:56:18;4.30;;;4.00;;
42802;SDS011;28447;48.682;9.022;2023-05-07T09:58:45;4.22;;;3.60;;
42802;SDS011;28447;48.682;9.022;2023-05-07T10:01:12;4.68;;;4.13;;
42802;SDS011;28447;48.682;9.022;2023-05-07T10:03:39;5.38;;;3.78;;
42802;SDS011;28447;48.682;9.022;2023-05-07T10:06:08;5.35;;;4.20;;
42802;SDS011;28447;48.682;9.022;2023-05-07T10:08:35;4.07;;;3.70;;
42802;SDS011;28447;48.682;9.022;2023-05-07T10:11:02;4.40;;;3.63;;
42802;SDS011;28447;48.682;9.022;2023-05-07T10:13:29;5.65;;;4.03;;
42802;SDS011;28447;48.682;9.022;2023-05-07T10:15:55;4.95;;;4.38;;
42802;SDS011;28447;48.682;9.022;2023-05-07T10:18:21;6.25;;;3.53;;
42802;SDS011;28447;48.682;9.022;2023-05-07T10:20:48;4.10;;;3.75;;
42802;SDS011;28447;48.682;9.022;2023-05-07T10:23:18;4.32;;;3.90;;
42802;SDS011;28447;48.682;9.022;2023-05-07T10:25:48;4.10;;;3.60;;
42802;SDS011;28447;48.682;9.022;2023-05-07T10:28:14;3.20;;;2.90;;
42802;SDS011;28447;48.682;9.022;2023-05-07T10:30:47;4.20;;;3.80;;
42802;SDS011;28447;48.682;9.022;2023-05-07T10:33:32;4.40;;;3.60;;
42802;SDS011;28447;48.682;9.022;2023-05-07T10:35:59;5.32;;;3.75;;
42802;SDS011;28447;48.682;9.022;2023-05-07T10:38:27;4.30;;;3.90;;
42802;SDS011;28447;48.682;9.022;2023-05-07T10:40:54;7.50;;;3.90;;
42802;SDS011;28447;48.682;9.022;2023-05-07T10:43:20;4.30;;;3.45;;
42802;SDS011;28447;48.682;9.022;2023-05-07T10:51:31;3.60;;;3.30;;
42802;SDS011;28447;48.682;9.022;2023-05-07T10:56:36;4.53;;;3.05;;
42802;SDS011;28447;48.682;9.022;2023-05-07T11:01:49;5.28;;;3.70;;
42802;SDS011;28447;48.682;9.022;2023-05-07T11:04:18;4.32;;;3.60;;
42802;SDS011;28447;48.682;9.022;2023-05-07T11:12:17;4.28;;;3.10;;
42802;SDS011;28447;48.682;9.022;2023-05-07T11:15:04;4.43;;;3.53;;
42802;SDS011;28447;48.682;9.022;2023-05-07T11:17:34;3.42;;;3.13;;
42802;SDS011;28447;48.682;9.022;2023-05-07T11:20:20;4.63;;;3.38;;
42802;SDS011;28447;48.682;9.022;2023-05-07T11:22:46;5.40;;;3.20;;
42802;SDS011;28447;48.682;9.022;2023-05-07T11:25:17;3.60;;;3.30;;
42802;SDS011;28447;48.682;9.022;2023-05-07T11:27:46;4.57;;;4.03;;
42802;SDS011;28447;48.682;9.022;2023-05-07T11:30:18;4.05;;;3.65;;
42802;SDS011;28447;48.682;9.022;2023-05-07T11:32:43;4.97;;;3.65;;
42802;SDS011;28447;48.682;9.022;2023-05-07T11:35:13;4.15;;;3.75;;
42802;SDS011;28447;48.682;9.022;2023-05-07T11:37:40;5.85;;;3.70;;
42802;SDS011;28447;48.682;9.022;2023-05-07T11:40:07;6.67;;;4.60;;
42802;SDS011;28447;48.682;9.022;2023-05-07T11:42:38;4.50;;;3.13;;
42802;SDS011;28447;48.682;9.022;2023-05-07T11:45:06;4.50;;;4.10;;
42802;SDS011;28447;48.682;9.022;2023-05-07T11:47:33;4.17;;;3.83;;
42802;SDS011;28447;48.682;9.022;2023-05-07T11:50:04;4.00;;;3.60;;
42802;SDS011;28447;48.682;9.022;2023-05-07T11:52:32;4.30;;;3.23;;
42802;SDS011;28447;48.682;9.022;2023-05-07T11:54:58;4.83;;;3.77;;
42802;SDS011;28447;48.682;9.022;2023-05-07T11:57:25;5.40;;;3.83;;
42802;SDS011;28447;48.682;9.022;2023-05-07T11:59:55;4.53;;;3.80;;
42802;SDS011;28447;48.682;9.022;2023-05-07T12:02:26;4.67;;;4.27;;
42802;SDS011;28447;48.682;9.022;2023-05-07T12:04:53;5.13;;;3.70;;
42802;SDS011;28447;48.682;9.022;2023-05-07T12:07:20;5.27;;;3.33;;
42802;SDS011;28447;48.682;9.022;2023-05-07T12:09:46;3.50;;;2.40;;
42802;SDS011;28447;48.682;9.022;2023-05-07T12:12:12;3.03;;;1.93;;
42802;SDS011;28447;48.682;9.022;2023-05-07T12:14:43;2.40;;;1.77;;
42802;SDS011;28447;48.682;9.022;2023-05-07T12:17:09;2.63;;;1.93;;
42802;SDS011;28447;48.682;9.022;2023-05-07T12:19:36;3.00;;;1.77;;
42802;SDS011;28447;48.682;9.022;2023-05-07T12:22:03;2.60;;;1.73;;
42802;SDS011;28447;48.682;9.022;2023-05-07T12:24:41;2.60;;;1.90;;
42802;SDS011;28447;48.682;9.022;2023-05-07T12:27:14;1.90;;;1.70;;
42802;SDS011;28447;48.682;9.022;2023-05-07T12:29:47;2.57;;;2.37;;
42802;SDS011;28447;48.682;9.022;2023-05-07T12:32:20;4.53;;;2.10;;
42802;SDS011;28447;48.682;9.022;2023-05-07T12:34:46;2.53;;;2.33;;
42802;SDS011;28447;48.682;9.022;2023-05-07T12:37:15;5.90;;;2.33;;
42802;SDS011;28447;48.682;9.022;2023-05-07T12:39:44;4.87;;;2.10;;
42802;SDS011;28447;48.682;9.022;2023-05-07T12:42:16;3.73;;;3.00;;
42802;SDS011;28447;48.682;9.022;2023-05-07T12:44:48;8.03;;;4.27;;
42802;SDS011;28447;48.682;9.022;2023-05-07T12:47:14;9.10;;;3.60;;
42802;SDS011;28447;48.682;9.022;2023-05-07T12:49:40;9.40;;;5.00;;
42802;SDS011;28447;48.682;9.022;2023-05-07T12:52:06;11.37;;;4.47;;
42802;SDS011;28447;48.682;9.022;2023-05-07T12:54:33;9.80;;;4.40;;
42802;SDS011;28447;48.682;9.022;2023-05-07T12:57:03;10.43;;;4.50;;
42802;SDS011;28447;48.682;9.022;2023-05-07T12:59:39;5.93;;;4.37;;
42802;SDS011;28447;48.682;9.022;2023-05-07T13:02:06;8.03;;;4.10;;
42802;SDS011;28447;48.682;9.022;2023-05-07T13:04:32;7.20;;;4.23;;
42802;SDS011;28447;48.682;9.022;2023-05-07T13:06:58;6.87;;;3.83;;
42802;SDS011;28447;48.682;9.022;2023-05-07T13:09:24;8.03;;;3.83;;
42802;SDS011;28447;48.682;9.022;2023-05-07T13:11:50;8.37;;;4.30;;
42802;SDS011;28447;48.682;9.022;2023-05-07T13:14:16;5.33;;;3.93;;
42802;SDS011;28447;48.682;9.022;2023-05-07T13:16:43;6.67;;;4.70;;
42802;SDS011;28447;48.682;9.022;2023-05-07T13:19:09;9.00;;;4.33;;
42802;SDS011;28447;48.682;9.022;2023-05-07T13:21:36;8.40;;;4.67;;
42802;SDS011;28447;48.682;9.022;2023-05-07T13:24:02;7.83;;;5.60;;
42802;SDS011;28447;48.682;9.022;2023-05-07T13:26:29;9.13;;;5.40;;
42802;SDS011;28447;48.682;9.022;2023-05-07T13:28:55;7.87;;;5.60;;
42802;SDS011;28447;48.682;9.022;2023-05-07T13:31:21;6.90;;;5.10;;
42802;SDS011;28447;48.682;9.022;2023-05-07T13:33:47;6.73;;;4.57;;
42802;SDS011;28447;48.682;9.022;2023-05-07T13:36:14;5.73;;;4.37;;
42802;SDS011;28447;48.682;9.022;2023-05-07T13:38:40;5.60;;;4.00;;
42802;SDS011;28447;48.682;9.022;2023-05-07T13:41:06;7.03;;;3.90;;
42802;SDS011;28447;48.682;9.022;2023-05-07T13:43:32;8.50;;;3.70;;
42802;SDS011;28447;48.682;9.022;2023-05-07T13:45:59;7.67;;;4.63;;
42802;SDS011;28447;48.682;9.022;2023-05-07T13:48:25;6.90;;;4.50;;
42802;SDS011;28447;48.682;9.022;2023-05-07T13:50:51;15.37;;;11.40;;
42802;SDS011;28447;48.682;9.022;2023-05-07T13:53:17;10.60;;;6.00;;
42802;SDS011;28447;48.682;9.022;2023-05-07T13:55:44;10.47;;;5.83;;
42802;SDS011;28447;48.682;9.022;2023-05-07T13:58:10;11.80;;;5.53;;
42802;SDS011;28447;48.682;9.022;2023-05-07T14:00:36;8.53;;;5.50;;
42802;SDS011;28447;48.682;9.022;2023-05-07T14:03:02;8.43;;;5.70;;
42802;SDS011;28447;48.682;9.022;2023-05-07T14:05:28;15.73;;;5.60;;
42802;SDS011;28447;48.682;9.022;2023-05-07T14:07:55;10.57;;;5.80;;
42802;SDS011;28447;48.682;9.022;2023-05-07T14:10:22;5.37;;;4.83;;
42802;SDS011;28447;48.682;9.022;2023-05-07T14:12:48;10.10;;;5.97;;
42802;SDS011;28447;48.682;9.022;2023-05-07T14:15:14;6.87;;;5.00;;
42802;SDS011;28447;48.682;9.022;2023-05-07T14:17:41;6.03;;;4.83;;
42802;SDS011;28447;48.682;9.022;2023-05-07T14:20:07;5.00;;;4.60;;
42802;SDS011;28447;48.682;9.022;2023-05-07T14:22:33;5.10;;;4.30;;
42802;SDS011;28447;48.682;9.022;2023-05-07T14:24:59;6.83;;;4.77;;
42802;SDS011;28447;48.682;9.022;2023-05-07T14:27:25;4.77;;;4.27;;
42802;SDS011;28447;48.682;9.022;2023-05-07T14:29:51;4.50;;;3.80;;
42802;SDS011;28447;48.682;9.022;2023-05-07T14:32:17;5.23;;;4.30;;
42802;SDS011;28447;48.682;9.022;2023-05-07T14:34:44;5.87;;;4.37;;
42802;SDS011;28447;48.682;9.022;2023-05-07T14:37:10;5.13;;;4.17;;
42802;SDS011;28447;48.682;9.022;2023-05-07T14:39:36;8.00;;;4.67;;
42802;SDS011;28447;48.682;9.022;2023-05-07T14:42:02;4.97;;;4.50;;
42802;SDS011;28447;48.682;9.022;2023-05-07T14:44:28;9.63;;;4.57;;
42802;SDS011;28447;48.682;9.022;2023-05-07T14:46:54;5.40;;;4.60;;
42802;SDS011;28447;48.682;9.022;2023-05-07T14:49:21;5.27;;;4.07;;
42802;SDS011;28447;48.682;9.022;2023-05-07T14:51:47;4.67;;;4.17;;
42802;SDS011;28447;48.682;9.022;2023-05-07T14:54:13;5.67;;;4.33;;
42802;SDS011;28447;48.682;9.022;2023-05-07T14:56:40;6.00;;;4.50;;
42802;SDS011;28447;48.682;9.022;2023-05-07T14:59:06;5.37;;;4.00;;
42802;SDS011;28447;48.682;9.022;2023-05-07T15:01:34;6.00;;;4.20;;
42802;SDS011;28447;48.682;9.022;2023-05-07T15:04:00;4.90;;;4.13;;
42802;SDS011;28447;48.682;9.022;2023-05-07T15:06:26;5.50;;;4.70;;
42802;SDS011;28447;48.682;9.022;2023-05-07T15:08:53;6.70;;;5.50;;
42802;SDS011;28447;48.682;9.022;2023-05-07T15:11:18;5.43;;;4.93;;
42802;SDS011;28447;48.682;9.022;2023-05-07T15:13:45;5.73;;;5.13;;
42802;SDS011;28447;48.682;9.022;2023-05-07T15:16:11;7.27;;;4.30;;
42802;SDS011;28447;48.682;9.022;2023-05-07T15:18:37;5.70;;;4.50;;
42802;SDS011;28447;48.682;9.022;2023-05-07T15:21:03;5.40;;;4.77;;
42802;SDS011;28447;48.682;9.022;2023-05-07T15:23:29;6.63;;;4.57;;
42802;SDS011;28447;48.682;9.022;2023-05-07T15:25:55;6.50;;;4.80;;
42802;SDS011;28447;48.682;9.022;2023-05-07T15:28:21;6.40;;;5.03;;
42802;SDS011;28447;48.682;9.022;2023-05-07T15:30:47;6.93;;;4.60;;
42802;SDS011;28447;48.682;9.022;2023-05-07T15:33:13;7.27;;;5.03;;
42802;SDS011;28447;48.682;9.022;2023-05-07T15:35:39;5.60;;;4.90;;
42802;SDS011;28447;48.682;9.022;2023-05-07T15:38:05;7.20;;;5.17;;
42802;SDS011;28447;48.682;9.022;2023-05-07T15:40:31;6.80;;;4.70;;
42802;SDS011;28447;48.682;9.022;2023-05-07T15:42:57;5.30;;;4.60;;
42802;SDS011;28447;48.682;9.022;2023-05-07T15:45:23;5.70;;;5.03;;
42802;SDS011;28447;48.682;9.022;2023-05-07T15:47:49;9.20;;;5.87;;
42802;SDS011;28447;48.682;9.022;2023-05-07T15:50:15;7.70;;;5.27;;
42802;SDS011;28447;48.682;9.022;2023-05-07T15:52:40;7.00;;;5.00;;
42802;SDS011;28447;48.682;9.022;2023-05-07T15:55:06;4.70;;;4.10;;
42802;SDS011;28447;48.682;9.022;2023-05-07T15:57:33;5.30;;;4.73;;
42802;SDS011;28447;48.682;9.022;2023-05-07T15:59:59;5.77;;;4.53;;
42802;SDS011;28447;48.682;9.022;2023-05-07T16:02:25;6.10;;;5.50;;
42802;SDS011;28447;48.682;9.022;2023-05-07T16:04:51;7.03;;;4.73;;
42802;SDS011;28447;48.682;9.022;2023-05-07T16:07:17;5.70;;;4.73;;
42802;SDS011;28447;48.682;9.022;2023-05-07T16:09:43;7.43;;;4.77;;
42802;SDS011;28447;48.682;9.022;2023-05-07T16:12:09;7.53;;;5.60;;
42802;SDS011;28447;48.682;9.022;2023-05-07T16:14:36;5.33;;;4.40;;
42802;SDS011;28447;48.682;9.022;2023-05-07T16:17:03;5.40;;;4.30;;
42802;SDS011;28447;48.682;9.022;2023-05-07T16:19:28;7.27;;;6.50;;
42802;SDS011;28447;48.682;9.022;2023-05-07T16:21:54;7.00;;;5.10;;
42802;SDS011;28447;48.682;9.022;2023-05-07T16:24:20;7.63;;;5.40;;
42802;SDS011;28447;48.682;9.022;2023-05-07T16:26:45;10.90;;;8.07;;
42802;SDS011;28447;48.682;9.022;2023-05-07T16:29:11;9.80;;;5.47;;
42802;SDS011;28447;48.682;9.022;2023-05-07T16:31:37;12.97;;;10.43;;
42802;SDS011;28447;48.682;9.022;2023-05-07T16:34:03;5.53;;;4.80;;
42802;SDS011;28447;48.682;9.022;2023-05-07T16:36:28;5.10;;;4.60;;
42802;SDS011;28447;48.682;9.022;2023-05-07T16:38:54;13.73;;;9.97;;
42802;SDS011;28447;48.682;9.022;2023-05-07T16:41:20;6.83;;;5.10;;
42802;SDS011;28447;48.682;9.022;2023-05-07T16:43:46;6.70;;;4.87;;
42802;SDS011;28447;48.682;9.022;2023-05-07T16:46:12;9.03;;;4.30;;
42802;SDS011;28447;48.682;9.022;2023-05-07T16:48:38;6.10;;;4.80;;
42802;SDS011;28447;48.682;9.022;2023-05-07T16:51:04;4.03;;;3.63;;
42802;SDS011;28447;48.682;9.022;2023-05-07T16:53:31;4.43;;;4.00;;
42802;SDS011;28447;48.682;9.022;2023-05-07T16:55:56;5.20;;;3.77;;
42802;SDS011;28447;48.682;9.022;2023-05-07T16:58:22;7.80;;;5.13;;
42802;SDS011;28447;48.682;9.022;2023-05-07T17:00:48;5.90;;;4.43;;
42802;SDS011;28447;48.682;9.022;2023-05-07T17:03:14;5.63;;;4.47;;
42802;SDS011;28447;48.682;9.022;2023-05-07T17:05:40;5.50;;;4.57;;
42802;SDS011;28447;48.682;9.022;2023-05-07T17:08:05;9.97;;;3.97;;
42802;SDS011;28447;48.682;9.022;2023-05-07T17:10:31;5.90;;;4.17;;
42802;SDS011;28447;48.682;9.022;2023-05-07T17:12:57;4.57;;;4.17;;
42802;SDS011;28447;48.682;9.022;2023-05-07T17:15:22;5.20;;;4.70;;
42802;SDS011;28447;48.682;9.022;2023-05-07T17:17:48;13.50;;;5.70;;
42802;SDS011;28447;48.682;9.022;2023-05-07T17:20:14;5.93;;;5.00;;
42802;SDS011;28447;48.682;9.022;2023-05-07T17:22:40;5.60;;;5.00;;
42802;SDS011;28447;48.682;9.022;2023-05-07T17:25:05;6.13;;;5.00;;
42802;SDS011;28447;48.682;9.022;2023-05-07T17:27:31;6.53;;;5.60;;
42802;SDS011;28447;48.682;9.022;2023-05-07T17:29:58;5.13;;;4.63;;
42802;SDS011;28447;48.682;9.022;2023-05-07T17:32:24;6.07;;;5.47;;
42802;SDS011;28447;48.682;9.022;2023-05-07T17:34:50;6.40;;;5.37;;
42802;SDS011;28447;48.682;9.022;2023-05-07T17:37:16;6.63;;;5.10;;
42802;SDS011;28447;48.682;9.022;2023-05-07T17:39:41;5.70;;;5.10;;
42802;SDS011;28447;48.682;9.022;2023-05-07T17:42:07;6.60;;;5.90;;
42802;SDS011;28447;48.682;9.022;2023-05-07T17:44:33;8.60;;;6.10;;
42802;SDS011;28447;48.682;9.022;2023-05-07T17:46:59;7.00;;;5.70;;
42802;SDS011;28447;48.682;9.022;2023-05-07T17:49:25;5.40;;;4.90;;
42802;SDS011;28447;48.682;9.022;2023-05-07T17:51:50;7.13;;;5.93;;
42802;SDS011;28447;48.682;9.022;2023-05-07T17:54:17;10.43;;;5.80;;
42802;SDS011;28447;48.682;9.022;2023-05-07T17:56:42;6.87;;;6.13;;
42802;SDS011;28447;48.682;9.022;2023-05-07T17:59:08;7.27;;;5.90;;
42802;SDS011;28447;48.682;9.022;2023-05-07T18:01:35;6.00;;;5.37;;
42802;SDS011;28447;48.682;9.022;2023-05-07T18:04:01;7.37;;;5.63;;
42802;SDS011;28447;48.682;9.022;2023-05-07T18:06:27;8.60;;;5.40;;
42802;SDS011;28447;48.682;9.022;2023-05-07T18:08:53;5.97;;;5.30;;
42802;SDS011;28447;48.682;9.022;2023-05-07T18:11:19;7.20;;;5.63;;
42802;SDS011;28447;48.682;9.022;2023-05-07T18:13:47;6.10;;;5.43;;
42802;SDS011;28447;48.682;9.022;2023-05-07T18:16:12;6.33;;;5.50;;
42802;SDS011;28447;48.682;9.022;2023-05-07T18:18:39;6.73;;;5.80;;
42802;SDS011;28447;48.682;9.022;2023-05-07T18:21:05;7.13;;;5.93;;
42802;SDS011;28447;48.682;9.022;2023-05-07T18:23:30;7.23;;;5.90;;
42802;SDS011;28447;48.682;9.022;2023-05-07T18:25:59;6.60;;;5.97;;
42802;SDS011;28447;48.682;9.022;2023-05-07T18:28:25;7.43;;;6.27;;
42802;SDS011;28447;48.682;9.022;2023-05-07T18:30:50;8.10;;;6.30;;
42802;SDS011;28447;48.682;9.022;2023-05-07T18:33:16;7.90;;;6.10;;
42802;SDS011;28447;48.682;9.022;2023-05-07T18:35:42;10.07;;;7.33;;
42802;SDS011;28447;48.682;9.022;2023-05-07T18:38:08;8.37;;;6.50;;
42802;SDS011;28447;48.682;9.022;2023-05-07T18:40:34;14.70;;;7.33;;
42802;SDS011;28447;48.682;9.022;2023-05-07T18:43:00;12.07;;;6.93;;
42802;SDS011;28447;48.682;9.022;2023-05-07T18:45:30;7.73;;;6.90;;
42802;SDS011;28447;48.682;9.022;2023-05-07T18:47:57;8.77;;;7.87;;
42802;SDS011;28447;48.682;9.022;2023-05-07T18:50:23;11.17;;;7.80;;
42802;SDS011;28447;48.682;9.022;2023-05-07T18:52:49;8.73;;;7.13;;
42802;SDS011;28447;48.682;9.022;2023-05-07T18:55:14;11.03;;;6.37;;
42802;SDS011;28447;48.682;9.022;2023-05-07T18:57:41;8.13;;;6.70;;
42802;SDS011;28447;48.682;9.022;2023-05-07T19:00:09;8.27;;;6.43;;
42802;SDS011;28447;48.682;9.022;2023-05-07T19:02:35;6.20;;;5.37;;